createdAt,value
2024-01-17T00:02:36.015Z,-2.68
2024-01-17T00:05:39.041Z,-2.64
2024-01-17T00:08:42.059Z,-2.70
2024-01-17T00:11:47.636Z,-2.68
2024-01-17T00:14:52.264Z,-2.67
2024-01-17T00:17:55.649Z,-2.76
2024-01-17T00:20:58.796Z,-2.77
2024-01-17T00:24:02.114Z,-2.81
2024-01-17T00:27:06.289Z,-2.91
2024-01-17T00:30:09.945Z,-2.96
2024-01-17T00:33:13.200Z,-2.95
2024-01-17T00:36:16.332Z,-3.05
2024-01-17T00:39:20.070Z,-3.15
2024-01-17T00:42:22.956Z,-3.06
2024-01-17T00:45:25.818Z,-3.28
2024-01-17T00:48:28.916Z,-3.31
2024-01-17T00:51:35.943Z,-3.47
2024-01-17T00:54:38.840Z,-3.50
2024-01-17T00:57:41.901Z,-3.58
2024-01-17T01:00:47.032Z,-3.63
2024-01-17T01:03:51.616Z,-3.76
2024-01-17T01:06:54.770Z,-3.81
2024-01-17T01:09:58.206Z,-3.75
2024-01-17T01:13:02.116Z,-3.85
2024-01-17T01:16:05.492Z,-3.87
2024-01-17T01:19:08.570Z,-3.96
2024-01-17T01:22:11.489Z,-4.01
2024-01-17T01:25:14.535Z,-4.12
2024-01-17T01:28:17.561Z,-4.23
2024-01-17T01:31:23.378Z,-4.15
2024-01-17T01:34:26.277Z,-4.24
2024-01-17T01:37:29.294Z,-4.15
2024-01-17T01:40:32.156Z,-4.24
2024-01-17T01:43:34.950Z,-4.15
2024-01-17T01:46:38.174Z,-4.06
2024-01-17T01:49:41.262Z,-4.01
2024-01-17T01:52:49.586Z,-4.00
2024-01-17T01:55:54.477Z,-3.99
2024-01-17T01:58:59.134Z,-3.91
2024-01-17T02:02:05.961Z,-3.88
2024-01-17T02:05:10.442Z,-3.77
2024-01-17T02:08:13.338Z,-3.74
2024-01-17T02:11:16.483Z,-3.64
2024-01-17T02:14:21.112Z,-3.73
2024-01-17T02:17:24.123Z,-3.66
2024-01-17T02:20:27.648Z,-3.64
2024-01-17T02:23:30.707Z,-3.75
2024-01-17T02:26:33.500Z,-3.71
2024-01-17T02:29:36.591Z,-3.63
2024-01-17T02:32:39.711Z,-3.60
2024-01-17T02:35:43.397Z,-3.61
2024-01-17T02:38:46.472Z,-3.57
2024-01-17T02:41:49.413Z,-3.62
2024-01-17T02:44:52.296Z,-3.64
2024-01-17T02:47:55.285Z,-3.65
2024-01-17T02:50:58.244Z,-3.69
2024-01-17T02:54:01.348Z,-3.70
2024-01-17T02:57:04.862Z,-3.74
2024-01-17T03:00:09.853Z,-3.78
2024-01-17T03:03:13.081Z,-3.82
2024-01-17T03:06:18.079Z,-3.88
2024-01-17T03:09:21.305Z,-3.82
2024-01-17T03:12:25.951Z,-3.88
2024-01-17T03:15:28.813Z,-3.82
2024-01-17T03:18:31.880Z,-3.83
2024-01-17T03:21:34.819Z,-3.80
2024-01-17T03:24:38.649Z,-3.77
2024-01-17T03:27:41.571Z,-3.78
2024-01-17T03:30:44.766Z,-3.82
2024-01-17T03:33:48.128Z,-3.80
2024-01-17T03:36:51.269Z,-3.77
2024-01-17T03:39:54.442Z,-3.81
2024-01-17T03:42:57.386Z,-3.80
2024-01-17T03:46:00.479Z,-3.87
2024-01-17T03:49:04.360Z,-3.82
2024-01-17T03:52:08.703Z,-3.80
2024-01-17T03:55:11.762Z,-3.76
2024-01-17T03:58:17.706Z,-3.79
2024-01-17T04:01:20.696Z,-3.74
2024-01-17T04:04:23.890Z,-3.78
2024-01-17T04:07:26.901Z,-3.81
2024-01-17T04:10:29.809Z,-3.80
2024-01-17T04:13:32.724Z,-3.84
2024-01-17T04:16:38.313Z,-3.92
2024-01-17T04:19:42.511Z,-3.94
2024-01-17T04:22:45.395Z,-3.81
2024-01-17T04:25:48.262Z,-3.82
2024-01-17T04:28:51.826Z,-3.85
2024-01-17T04:31:54.770Z,-3.77
2024-01-17T04:34:57.733Z,-3.84
2024-01-17T04:38:00.599Z,-3.78
2024-01-17T04:41:04.231Z,-3.73
2024-01-17T04:44:07.130Z,-3.73
2024-01-17T04:47:10.076Z,-3.56
2024-01-17T04:50:13.889Z,-3.58
2024-01-17T04:53:16.910Z,-3.51
2024-01-17T04:56:20.026Z,-3.47
2024-01-17T04:59:23.280Z,-3.33
2024-01-17T05:02:26.425Z,-3.34
2024-01-17T05:05:29.422Z,-3.45
2024-01-17T05:08:32.317Z,-3.35
2024-01-17T05:11:35.392Z,-3.42
2024-01-17T05:14:38.486Z,-3.28
2024-01-17T05:17:41.648Z,-3.21
2024-01-17T05:20:44.979Z,-3.25
2024-01-17T05:23:48.000Z,-3.25
2024-01-17T05:26:50.833Z,-3.24
2024-01-17T05:29:53.771Z,-3.11
2024-01-17T05:32:57.067Z,-3.10
2024-01-17T05:36:00.370Z,-3.05
2024-01-17T05:39:04.620Z,-3.02
2024-01-17T05:42:08.411Z,-2.98
2024-01-17T05:45:11.839Z,-2.88
2024-01-17T05:48:15.061Z,-2.89
2024-01-17T05:51:18.065Z,-2.78
2024-01-17T05:54:21.122Z,-2.73
2024-01-17T05:57:24.215Z,-2.72
2024-01-17T06:00:27.232Z,-2.71
2024-01-17T06:03:30.431Z,-2.78
2024-01-17T06:06:33.398Z,-2.69
2024-01-17T06:09:36.444Z,-2.59
2024-01-17T06:12:42.898Z,-2.65
2024-01-17T06:15:46.200Z,-2.59
2024-01-17T06:18:49.731Z,-2.58
2024-01-17T06:21:52.753Z,-2.60
2024-01-17T06:24:55.774Z,-2.52
2024-01-17T06:27:58.867Z,-2.50
2024-01-17T06:31:02.109Z,-2.51
2024-01-17T06:34:05.515Z,-2.42
2024-01-17T06:37:08.781Z,-2.33
2024-01-17T06:40:12.472Z,-2.36
2024-01-17T06:43:15.652Z,-2.41
2024-01-17T06:46:18.636Z,-2.32
2024-01-17T06:49:21.706Z,-2.35
2024-01-17T06:52:24.844Z,-2.38
2024-01-17T06:55:27.767Z,-2.28
2024-01-17T06:58:30.938Z,-2.27
2024-01-17T07:01:36.368Z,-2.19
2024-01-17T07:04:44.628Z,-2.18
2024-01-17T07:08:09.004Z,-2.04
2024-01-17T07:11:47.041Z,-2.11
2024-01-17T07:15:00.673Z,-2.01
2024-01-17T07:18:04.698Z,-1.96
2024-01-17T07:21:08.777Z,-1.91
2024-01-17T07:24:14.032Z,-1.89
2024-01-17T07:27:17.169Z,-1.80
2024-01-17T07:30:25.466Z,-1.83
2024-01-17T07:33:33.583Z,-1.84
2024-01-17T07:36:36.771Z,-1.92
2024-01-17T07:39:44.812Z,-1.84
2024-01-17T07:42:48.371Z,-1.70
2024-01-17T07:45:52.043Z,-1.82
2024-01-17T07:48:55.609Z,-1.77
2024-01-17T07:52:01.361Z,-1.81
2024-01-17T07:55:08.984Z,-1.84
2024-01-17T07:58:13.228Z,-1.83
2024-01-17T08:01:16.661Z,-1.80
2024-01-17T08:04:19.709Z,-1.77
2024-01-17T08:07:26.297Z,-1.77
2024-01-17T08:10:30.325Z,-1.74
2024-01-17T08:13:35.345Z,-1.81
2024-01-17T08:16:38.350Z,-1.74
2024-01-17T08:19:41.723Z,-1.88
2024-01-17T08:22:45.033Z,-1.79
2024-01-17T08:25:48.400Z,-1.84
2024-01-17T08:28:56.768Z,-1.68
2024-01-17T08:31:59.755Z,-1.67
2024-01-17T08:35:04.010Z,-1.73
2024-01-17T08:38:07.236Z,-1.65
2024-01-17T08:41:10.805Z,-1.65
2024-01-17T08:44:15.032Z,-1.57
2024-01-17T08:47:19.069Z,-1.57
2024-01-17T08:50:22.098Z,-1.54
2024-01-17T08:53:25.301Z,-1.45
2024-01-17T08:56:28.168Z,-1.30
2024-01-17T08:59:34.815Z,-1.41
2024-01-17T09:02:38.208Z,-1.27
2024-01-17T09:05:41.443Z,-1.18
2024-01-17T09:08:44.422Z,-0.98
2024-01-17T09:11:47.700Z,-0.98
2024-01-17T09:14:51.495Z,-0.92
2024-01-17T09:17:54.514Z,-0.74
2024-01-17T09:20:57.835Z,-0.71
2024-01-17T09:24:00.983Z,-0.64
2024-01-17T09:27:04.923Z,-0.51
2024-01-17T09:30:08.703Z,-0.61
2024-01-17T09:33:11.917Z,-0.45
2024-01-17T09:36:15.484Z,-0.28
2024-01-17T09:39:21.710Z,-0.27
2024-01-17T09:42:25.826Z,-0.33
2024-01-17T09:45:31.312Z,-0.40
2024-01-17T09:48:34.363Z,-0.39
2024-01-17T09:51:42.466Z,-0.36
2024-01-17T09:54:47.738Z,-0.39
2024-01-17T09:58:05.453Z,-0.27
2024-01-17T10:01:16.609Z,-0.19
2024-01-17T10:04:26.016Z,-0.16
2024-01-17T10:07:29.734Z,0.13
2024-01-17T10:10:33.497Z,0.16
2024-01-17T10:13:36.460Z,0.29
2024-01-17T10:16:39.494Z,0.39
2024-01-17T10:19:43.099Z,0.50
2024-01-17T10:22:47.380Z,0.55
2024-01-17T10:25:50.419Z,0.70
2024-01-17T10:28:56.182Z,0.81
2024-01-17T10:32:02.945Z,0.97
2024-01-17T10:35:08.193Z,1.05
2024-01-17T10:38:11.975Z,1.21
2024-01-17T10:41:15.826Z,1.23
2024-01-17T10:44:20.030Z,1.25
2024-01-17T10:47:24.010Z,1.22
2024-01-17T10:50:27.212Z,1.17
2024-01-17T10:53:44.225Z,1.09
2024-01-17T10:56:55.589Z,1.16
2024-01-17T11:00:05.586Z,1.21
2024-01-17T11:03:20.446Z,1.37
2024-01-17T11:06:25.334Z,1.37
2024-01-17T11:09:28.905Z,1.33
2024-01-17T11:12:43.129Z,1.42
2024-01-17T11:15:47.926Z,1.47
2024-01-17T11:18:51.875Z,1.46
2024-01-17T11:21:55.826Z,1.58
2024-01-17T11:25:17.639Z,1.54
2024-01-17T11:28:29.846Z,1.58
2024-01-17T11:31:55.673Z,1.66
2024-01-17T11:34:58.702Z,1.73
2024-01-17T11:38:03.949Z,1.89
2024-01-17T11:41:10.846Z,1.88
2024-01-17T11:44:15.935Z,2.01
2024-01-17T11:47:22.121Z,2.09
2024-01-17T11:50:25.269Z,2.02
2024-01-17T11:53:32.756Z,2.01
2024-01-17T11:56:36.426Z,2.08
2024-01-17T11:59:41.700Z,2.12
2024-01-17T12:02:46.340Z,2.19
2024-01-17T12:05:49.526Z,2.32
2024-01-17T12:08:58.128Z,2.37
2024-01-17T12:12:03.217Z,2.28
2024-01-17T12:15:07.199Z,2.33
2024-01-17T12:18:21.470Z,2.45
2024-01-17T12:21:25.038Z,2.49
2024-01-17T12:24:38.926Z,2.36
2024-01-17T12:27:56.769Z,2.46
2024-01-17T12:31:01.532Z,2.61
2024-01-17T12:34:06.722Z,2.69
2024-01-17T12:37:09.796Z,2.87
2024-01-17T12:40:12.731Z,2.90
2024-01-17T12:43:17.438Z,2.97
2024-01-17T12:46:22.002Z,2.93
2024-01-17T12:49:31.177Z,2.82
2024-01-17T12:52:37.712Z,2.81
2024-01-17T12:55:49.550Z,2.81
2024-01-17T12:58:53.728Z,2.92
2024-01-17T13:02:00.110Z,2.99
2024-01-17T13:05:10.692Z,3.02
2024-01-17T13:08:17.035Z,2.90
2024-01-17T13:11:20.333Z,2.88
2024-01-17T13:14:25.152Z,2.89
2024-01-17T13:17:28.761Z,2.90
2024-01-17T13:20:31.826Z,2.91
2024-01-17T13:23:35.454Z,2.82
2024-01-17T13:26:42.342Z,2.86
2024-01-17T13:29:48.078Z,2.88
2024-01-17T13:32:51.229Z,2.89
2024-01-17T13:35:55.911Z,2.99
2024-01-17T13:38:58.923Z,2.98
2024-01-17T13:42:06.906Z,3.05
2024-01-17T13:45:11.963Z,3.05
2024-01-17T13:48:15.078Z,3.00
2024-01-17T13:51:18.503Z,3.04
2024-01-17T13:54:21.571Z,3.01
2024-01-17T13:57:24.519Z,2.99
2024-01-17T14:00:27.650Z,3.01
2024-01-17T14:03:32.826Z,3.05
2024-01-17T14:06:36.630Z,3.07
2024-01-17T14:09:40.436Z,3.07
2024-01-17T14:12:48.674Z,3.07
2024-01-17T14:15:51.964Z,3.08
2024-01-17T14:18:54.976Z,2.96
2024-01-17T14:21:57.870Z,2.91
2024-01-17T14:25:01.091Z,2.93
2024-01-17T14:28:07.227Z,2.99
2024-01-17T14:31:10.374Z,2.93
2024-01-17T14:34:17.947Z,2.84
2024-01-17T14:37:20.943Z,2.82
2024-01-17T14:40:23.894Z,2.78
2024-01-17T14:43:27.900Z,2.78
2024-01-17T14:46:34.813Z,2.85
2024-01-17T14:49:37.706Z,2.80
2024-01-17T14:52:41.358Z,2.80
2024-01-17T14:55:44.534Z,2.82
2024-01-17T14:58:47.520Z,2.74
2024-01-17T15:01:50.765Z,2.68
2024-01-17T15:04:56.465Z,2.68
2024-01-17T15:07:59.915Z,2.64
2024-01-17T15:11:02.946Z,2.59
2024-01-17T15:14:05.861Z,2.61
2024-01-17T15:17:08.815Z,2.65
2024-01-17T15:20:12.852Z,2.63
2024-01-17T15:23:15.784Z,2.61
2024-01-17T15:26:18.768Z,2.65
2024-01-17T15:29:21.702Z,2.65
2024-01-17T15:32:24.789Z,2.71
2024-01-17T15:35:27.856Z,2.64
2024-01-17T15:38:31.588Z,2.65
2024-01-17T15:41:36.124Z,2.68
2024-01-17T15:44:41.869Z,2.66
2024-01-17T15:47:46.179Z,2.73
2024-01-17T15:50:49.321Z,2.61
2024-01-17T15:53:52.416Z,2.58
2024-01-17T15:56:55.483Z,2.58
2024-01-17T15:59:58.689Z,2.62
2024-01-17T16:03:01.781Z,2.59
2024-01-17T16:06:06.131Z,2.54
2024-01-17T16:09:12.864Z,2.52
2024-01-17T16:12:17.026Z,2.50
2024-01-17T16:15:20.237Z,2.52
2024-01-17T16:18:23.228Z,2.59
2024-01-17T16:21:26.418Z,2.42
2024-01-17T16:24:29.292Z,2.47
2024-01-17T16:27:32.294Z,2.34
2024-01-17T16:30:35.106Z,2.37
2024-01-17T16:33:38.618Z,2.36
2024-01-17T16:36:41.725Z,2.26
2024-01-17T16:39:44.608Z,2.26
2024-01-17T16:42:47.490Z,2.23
2024-01-17T16:45:50.700Z,2.05
2024-01-17T16:48:53.753Z,2.06
2024-01-17T16:51:58.658Z,2.06
2024-01-17T16:55:01.630Z,2.05
2024-01-17T16:58:04.743Z,1.98
2024-01-17T17:01:08.994Z,1.96
2024-01-17T17:04:12.041Z,1.98
2024-01-17T17:07:14.930Z,1.89
2024-01-17T17:10:17.871Z,1.81
2024-01-17T17:13:20.779Z,1.79
2024-01-17T17:16:24.138Z,1.76
2024-01-17T17:19:26.996Z,1.80
2024-01-17T17:22:37.163Z,1.82
2024-01-17T17:25:42.394Z,1.89
2024-01-17T17:28:48.561Z,1.91
2024-01-17T17:31:51.704Z,1.92
2024-01-17T17:34:54.663Z,1.87
2024-01-17T17:37:58.487Z,1.84
2024-01-17T17:41:01.501Z,1.88
2024-01-17T17:44:04.732Z,1.86
2024-01-17T17:47:07.738Z,1.94
2024-01-17T17:50:14.966Z,1.91
2024-01-17T17:53:18.834Z,1.89
2024-01-17T17:56:29.143Z,1.94
2024-01-17T17:59:32.211Z,1.92
2024-01-17T18:02:35.783Z,1.98
2024-01-17T18:05:41.579Z,1.99
2024-01-17T18:08:47.984Z,1.95
2024-01-17T18:11:51.127Z,1.94
2024-01-17T18:14:54.199Z,1.96
2024-01-17T18:17:57.173Z,2.02
2024-01-17T18:21:02.093Z,1.91
2024-01-17T18:24:05.435Z,1.98
2024-01-17T18:27:08.510Z,1.94
2024-01-17T18:30:12.109Z,1.99
2024-01-17T18:33:15.066Z,2.02
2024-01-17T18:36:18.076Z,2.04
2024-01-17T18:39:21.207Z,2.05
2024-01-17T18:42:24.467Z,2.00
2024-01-17T18:45:27.382Z,1.98
2024-01-17T18:48:30.370Z,1.97
2024-01-17T18:51:33.422Z,1.99
2024-01-17T18:54:36.462Z,2.03
2024-01-17T18:57:39.442Z,2.00
2024-01-17T19:00:42.666Z,2.04
2024-01-17T19:03:46.067Z,2.04
2024-01-17T19:06:49.393Z,2.04
2024-01-17T19:09:52.327Z,1.92
2024-01-17T19:12:55.245Z,2.02
2024-01-17T19:15:58.030Z,1.97
2024-01-17T19:19:01.836Z,1.96
2024-01-17T19:22:05.126Z,1.98
2024-01-17T19:25:11.699Z,1.92
2024-01-17T19:28:15.232Z,1.90
2024-01-17T19:31:18.227Z,1.89
2024-01-17T19:34:21.132Z,1.90
2024-01-17T19:37:24.091Z,1.92
2024-01-17T19:40:27.036Z,1.93
2024-01-17T19:43:29.953Z,1.93
2024-01-17T19:46:32.869Z,1.92
2024-01-17T19:49:37.762Z,1.93
2024-01-17T19:52:40.720Z,2.00
2024-01-17T19:55:43.577Z,2.00
2024-01-17T19:58:47.636Z,2.04
2024-01-17T20:01:50.501Z,2.03
2024-01-17T20:04:53.528Z,2.05
2024-01-17T20:07:56.737Z,2.02
2024-01-17T20:11:04.737Z,2.04
2024-01-17T20:14:07.829Z,2.11
2024-01-17T20:17:10.638Z,2.12
2024-01-17T20:20:13.605Z,2.01
2024-01-17T20:23:16.468Z,2.10
2024-01-17T20:26:21.490Z,2.06
2024-01-17T20:29:24.359Z,2.05
2024-01-17T20:32:27.287Z,2.14
2024-01-17T20:35:30.262Z,2.17
2024-01-17T20:38:33.039Z,2.11
2024-01-17T20:41:36.058Z,2.03
2024-01-17T20:44:39.012Z,2.05
2024-01-17T20:47:42.675Z,2.03
2024-01-17T20:50:45.684Z,2.04
2024-01-17T20:53:48.721Z,2.05
2024-01-17T20:56:54.277Z,2.04
2024-01-17T20:59:57.182Z,1.99
2024-01-17T21:03:00.291Z,2.01
2024-01-17T21:06:03.441Z,2.04
2024-01-17T21:09:07.323Z,2.05
2024-01-17T21:12:10.352Z,2.10
2024-01-17T21:15:13.496Z,2.12
2024-01-17T21:18:16.525Z,2.17
2024-01-17T21:21:19.475Z,2.13
2024-01-17T21:24:24.728Z,2.03
2024-01-17T21:27:30.194Z,2.06
2024-01-17T21:30:33.188Z,1.96
2024-01-17T21:33:36.398Z,2.03
2024-01-17T21:36:40.466Z,2.03
2024-01-17T21:39:43.570Z,2.04
2024-01-17T21:42:46.500Z,2.11
2024-01-17T21:45:49.448Z,2.04
2024-01-17T21:48:56.441Z,2.04
2024-01-17T21:52:02.534Z,2.06
2024-01-17T21:55:06.289Z,1.90
2024-01-17T21:58:09.387Z,1.91
2024-01-17T22:01:13.092Z,1.87
2024-01-17T22:04:16.933Z,1.86
2024-01-17T22:07:19.798Z,1.78
2024-01-17T22:10:22.751Z,1.83
2024-01-17T22:13:26.303Z,1.78
2024-01-17T22:16:29.193Z,1.83
2024-01-17T22:19:32.238Z,1.88
2024-01-17T22:22:35.162Z,1.94
2024-01-17T22:25:38.150Z,1.91
2024-01-17T22:28:41.148Z,1.85
2024-01-17T22:31:44.172Z,1.94
2024-01-17T22:34:47.203Z,1.89
2024-01-17T22:37:50.158Z,1.90
2024-01-17T22:40:52.962Z,1.92
2024-01-17T22:43:55.858Z,1.99
2024-01-17T22:46:58.716Z,2.00
2024-01-17T22:50:01.767Z,1.99
2024-01-17T22:53:05.272Z,2.01
2024-01-17T22:56:09.258Z,1.98
2024-01-17T22:59:12.172Z,1.95
2024-01-17T23:02:15.912Z,1.97
2024-01-17T23:05:20.119Z,1.97
2024-01-17T23:08:23.840Z,2.02
2024-01-17T23:11:27.077Z,1.95
2024-01-17T23:14:30.006Z,1.92
2024-01-17T23:17:33.161Z,1.81
2024-01-17T23:20:36.131Z,1.75
2024-01-17T23:23:39.019Z,1.81
2024-01-17T23:26:41.803Z,1.80
2024-01-17T23:29:44.613Z,1.73
2024-01-17T23:32:47.581Z,1.65
2024-01-17T23:35:50.417Z,1.50
2024-01-17T23:38:54.096Z,1.58
2024-01-17T23:41:57.081Z,1.59
2024-01-17T23:45:00.252Z,1.66
2024-01-17T23:48:03.479Z,1.67
2024-01-17T23:51:06.583Z,1.64
2024-01-17T23:54:09.518Z,1.60
2024-01-17T23:57:12.563Z,1.63
